Portada
METAR-TAF:

METAR-TAF

Aeroports :

Mineralnye Vody, Rússia

latitud: 44-14N, longitud: 043-04E, altitud: 314 m

Observació

L'informe es va fer fa 29 minuts, a les 21:00 UTC
Vent 4 kt del Oest/Nord-Oest
Temperatura 19°C
Humitat 94%
Pressió 1017 hPa
Visibilitat: 5000 m
Núvols disperses a una alçada de 5800 ft
Cel ennuvolat
boirina

METAR: URMM 192100Z 30002MPS 5000 BR SCT058 BKN/// 19/18 Q1017 R30/290050 TEMPO 0300 FG BKN002 RMK QFE734/0979

Hora: 00:29 (21:29 UTC)

Pronòstic

L'informe es va fer fa 1 hora i 29 minuts, a les 20:00 UTC
Pronòstic vàlid del 19 a les 21 UTC al 20 a les 21 UTC
Vent 6 kt del Oest/Nord-Oest amb ràfegues de 16 kt
Visibilitat 10 km o més
Cel ennuvolat a una alçada de 3000 ft
Temporalment
l' 19 a les 21 UTC al 19 a les 24 UTC
Visibilitat: 3100 m
Cel ennuvolat a una alçada de 1100 ft
Cel ennuvolat a una alçada de 2000 ft, Cumulonimbus.
xàfecs de pluja

TAF: URMM 192000Z 1921/2021 29003G08MPS 9999 BKN030 TX29/2012Z TN18/2002Z TEMPO 1921/1924 3100 -SHRA BKN011 BKN020CB

Observacions i pronòstics meteorològics de més de 4000 aeroports (METAR i TAF).

Les estacions disponibles són els punts grocs i vermells al mapa.

Posi el ratolí al punt desitjat per veure el nom de l'estació.

Feu clic per veure les observacions i els pronòstics meteorològics.

Per canviar el mapa: feu clic els botons verds amb una creu de color negre per apropar; al botó verd amb un guió per allunyar la imatge; o en les fletxes verdes per a mapes adjacents.


METAR-TAF: